To NAV CANADA Home Page Login to a new session Search on AWWS site Feedback and Comments Disclaimer Vers la page française équivalente Tips FAQ What's new on the site To the Forecasts and Observations / NOTAM section To "File a Flight Plan" website Publications and other links Update of the User's profile FIC Telephone Numbers My Weather Data Folder Route Weather Data Regional Weather Data Local Weather Data To the Forecasts and Observations / NOTAM section
Request Generated 03/29/2015 at 19:31:25 UTC . Weather information available at that time is displayed.

METAR/TAF

OLD CROW/YT    

SPECI CYOC 291927Z 03011G19KT 010V070 25SM DRSN VCBLSN FEW040 FEW090
FEW200 M11/M16 A2970 RMK SC2AC1CI1 AC TR CI TR SLP082=
METAR CYOC 291900Z 04014G21KT 20SM -SN DRSN SCT040 SCT090 BKN210
M11/M16 A2970 RMK SC3AC1CI1 SLP081=
SPECI CYOC 291819Z 04014G20KT 20SM -SN DRSN SCT040 SCT090 BKN210
M12/M16 A2970 RMK SC3AC1CI1 VIS LWR NE SLP081=
METAR CYOC 291800Z 03014G21KT 25SM DRSN VCBLSN FEW040 SCT090 SCT210
M12/M16 A2969 RMK SC2AC1CI1 SLP080=
METAR CYOC 291700Z CCA 07010G15KT 30SM VCBLSN DRSN FEW040 FEW090
SCT210 M13/M17 A2969 RMK SC2AC1CI1 AC TR VIS NW 3 SLP078=
METAR CYOC 291700Z 07010G15KT 30SM VCBLSN FEW040 FEW090 SCT210
M13/M17 A2969 RMK SC2AC1CI1 AC TR VIS NW 3 SLP078=

TAF CYOC 291740Z 2918/3001 06012KT P6SM SCT040 TEMPO 2918/3001 4SM
-SHSN SCT020 BKN040
RMK NXT FCST WILL BE ISSUED AT 301445Z=
Your time UTC time
Weather data provided by Environment Canada and NAV CANADA